sensor_id;sensor_type;location;lat;lon;timestamp;temperature;humidity
22974;DHT22;11653;50.848;4.584;2022-10-10T00:00:37;7.90;99.90
22974;DHT22;11653;50.848;4.584;2022-10-10T00:03:03;7.90;99.90
22974;DHT22;11653;50.848;4.584;2022-10-10T00:05:28;7.80;99.90
22974;DHT22;11653;50.848;4.584;2022-10-10T00:07:54;7.80;99.90
22974;DHT22;11653;50.848;4.584;2022-10-10T00:10:20;7.80;99.90
22974;DHT22;11653;50.848;4.584;2022-10-10T00:12:46;7.80;99.90
22974;DHT22;11653;50.848;4.584;2022-10-10T00:15:13;7.90;99.90
22974;DHT22;11653;50.848;4.584;2022-10-10T00:17:40;7.80;99.90
22974;DHT22;11653;50.848;4.584;2022-10-10T00:20:11;7.80;99.90
22974;DHT22;11653;50.848;4.584;2022-10-10T00:22:38;7.80;99.90
22974;DHT22;11653;50.848;4.584;2022-10-10T00:25:05;7.80;99.90
22974;DHT22;11653;50.848;4.584;2022-10-10T00:27:31;7.80;99.90
22974;DHT22;11653;50.848;4.584;2022-10-10T00:29:57;7.70;99.90
22974;DHT22;11653;50.848;4.584;2022-10-10T00:32:23;7.90;99.90
22974;DHT22;11653;50.848;4.584;2022-10-10T00:34:49;7.90;99.90
22974;DHT22;11653;50.848;4.584;2022-10-10T00:37:14;7.80;99.90
22974;DHT22;11653;50.848;4.584;2022-10-10T00:39:40;7.80;99.90
22974;DHT22;11653;50.848;4.584;2022-10-10T00:42:06;7.80;99.90
22974;DHT22;11653;50.848;4.584;2022-10-10T00:44:31;7.80;99.90
22974;DHT22;11653;50.848;4.584;2022-10-10T00:46:57;7.80;99.90
22974;DHT22;11653;50.848;4.584;2022-10-10T00:49:26;7.80;99.90
22974;DHT22;11653;50.848;4.584;2022-10-10T00:51:55;7.80;99.90
22974;DHT22;11653;50.848;4.584;2022-10-10T00:54:22;7.80;99.90
22974;DHT22;11653;50.848;4.584;2022-10-10T00:56:55;7.90;99.90
22974;DHT22;11653;50.848;4.584;2022-10-10T00:59:23;7.90;99.90
22974;DHT22;11653;50.848;4.584;2022-10-10T01:01:50;7.90;99.90
22974;DHT22;11653;50.848;4.584;2022-10-10T01:04:48;7.80;99.90
22974;DHT22;11653;50.848;4.584;2022-10-10T01:07:23;7.80;99.90
22974;DHT22;11653;50.848;4.584;2022-10-10T01:09:52;7.80;99.90
22974;DHT22;11653;50.848;4.584;2022-10-10T01:29:06;7.80;99.90
22974;DHT22;11653;50.848;4.584;2022-10-10T01:31:38;7.70;99.90
22974;DHT22;11653;50.848;4.584;2022-10-10T01:35:03;7.70;99.90
22974;DHT22;11653;50.848;4.584;2022-10-10T01:43:06;7.70;99.90
22974;DHT22;11653;50.848;4.584;2022-10-10T01:45:33;7.70;99.90
22974;DHT22;11653;50.848;4.584;2022-10-10T01:48:04;7.70;99.90
22974;DHT22;11653;50.848;4.584;2022-10-10T01:50:34;7.70;99.90
22974;DHT22;11653;50.848;4.584;2022-10-10T01:53:13;7.70;99.90
22974;DHT22;11653;50.848;4.584;2022-10-10T02:03:49;7.80;99.90
22974;DHT22;11653;50.848;4.584;2022-10-10T02:08:57;7.80;99.90
22974;DHT22;11653;50.848;4.584;2022-10-10T02:11:24;7.90;99.90
22974;DHT22;11653;50.848;4.584;2022-10-10T02:14:17;7.90;99.90
22974;DHT22;11653;50.848;4.584;2022-10-10T02:16:46;7.90;99.90
22974;DHT22;11653;50.848;4.584;2022-10-10T02:19:18;7.90;99.90
22974;DHT22;11653;50.848;4.584;2022-10-10T02:21:49;8.00;99.90
22974;DHT22;11653;50.848;4.584;2022-10-10T02:24:15;8.00;99.90
22974;DHT22;11653;50.848;4.584;2022-10-10T02:26:45;8.00;99.90
22974;DHT22;11653;50.848;4.584;2022-10-10T02:29:20;8.00;99.90
22974;DHT22;11653;50.848;4.584;2022-10-10T02:34:37;8.00;99.90
22974;DHT22;11653;50.848;4.584;2022-10-10T02:37:10;8.00;99.90
22974;DHT22;11653;50.848;4.584;2022-10-10T02:39:41;8.00;99.90
22974;DHT22;11653;50.848;4.584;2022-10-10T02:42:08;8.00;99.90
22974;DHT22;11653;50.848;4.584;2022-10-10T02:44:38;8.00;99.90
22974;DHT22;11653;50.848;4.584;2022-10-10T02:47:04;8.10;99.90
22974;DHT22;11653;50.848;4.584;2022-10-10T02:49:32;8.10;99.90
22974;DHT22;11653;50.848;4.584;2022-10-10T02:51:58;8.10;99.90
22974;DHT22;11653;50.848;4.584;2022-10-10T02:54:24;8.00;99.90
22974;DHT22;11653;50.848;4.584;2022-10-10T02:56:50;8.10;99.90
22974;DHT22;11653;50.848;4.584;2022-10-10T02:59:16;8.10;99.90
22974;DHT22;11653;50.848;4.584;2022-10-10T03:01:43;8.10;99.90
22974;DHT22;11653;50.848;4.584;2022-10-10T03:04:09;8.20;99.90
22974;DHT22;11653;50.848;4.584;2022-10-10T03:06:35;8.20;99.90
22974;DHT22;11653;50.848;4.584;2022-10-10T03:09:01;8.30;99.90
22974;DHT22;11653;50.848;4.584;2022-10-10T03:11:27;8.30;99.90
22974;DHT22;11653;50.848;4.584;2022-10-10T03:13:52;8.40;99.90
22974;DHT22;11653;50.848;4.584;2022-10-10T03:16:18;8.50;99.90
22974;DHT22;11653;50.848;4.584;2022-10-10T03:18:44;8.50;99.90
22974;DHT22;11653;50.848;4.584;2022-10-10T03:21:09;8.60;99.90
22974;DHT22;11653;50.848;4.584;2022-10-10T03:23:35;8.70;99.90
22974;DHT22;11653;50.848;4.584;2022-10-10T03:26:02;8.70;99.90
22974;DHT22;11653;50.848;4.584;2022-10-10T03:28:27;8.80;99.90
22974;DHT22;11653;50.848;4.584;2022-10-10T03:30:53;8.90;99.90
22974;DHT22;11653;50.848;4.584;2022-10-10T03:33:19;8.90;99.90
22974;DHT22;11653;50.848;4.584;2022-10-10T03:35:45;9.00;99.90
22974;DHT22;11653;50.848;4.584;2022-10-10T03:38:11;9.00;99.90
22974;DHT22;11653;50.848;4.584;2022-10-10T03:40:39;9.10;99.90
22974;DHT22;11653;50.848;4.584;2022-10-10T03:43:12;9.20;99.90
22974;DHT22;11653;50.848;4.584;2022-10-10T03:45:41;9.20;99.90
22974;DHT22;11653;50.848;4.584;2022-10-10T03:48:08;9.20;99.90
22974;DHT22;11653;50.848;4.584;2022-10-10T03:50:33;9.20;99.90
22974;DHT22;11653;50.848;4.584;2022-10-10T03:52:59;9.30;99.90
22974;DHT22;11653;50.848;4.584;2022-10-10T03:55:25;9.40;99.90
22974;DHT22;11653;50.848;4.584;2022-10-10T03:57:51;9.40;99.90
22974;DHT22;11653;50.848;4.584;2022-10-10T04:00:16;9.40;99.90
22974;DHT22;11653;50.848;4.584;2022-10-10T04:02:42;9.40;99.90
22974;DHT22;11653;50.848;4.584;2022-10-10T04:05:08;9.40;99.90
22974;DHT22;11653;50.848;4.584;2022-10-10T04:07:34;9.50;99.90
22974;DHT22;11653;50.848;4.584;2022-10-10T04:09:59;9.50;99.90
22974;DHT22;11653;50.848;4.584;2022-10-10T04:12:25;9.60;99.90
22974;DHT22;11653;50.848;4.584;2022-10-10T04:14:51;9.60;99.90
22974;DHT22;11653;50.848;4.584;2022-10-10T04:17:17;9.60;99.90
22974;DHT22;11653;50.848;4.584;2022-10-10T04:19:42;9.60;99.90
22974;DHT22;11653;50.848;4.584;2022-10-10T04:22:08;9.60;99.90
22974;DHT22;11653;50.848;4.584;2022-10-10T04:24:34;9.50;99.90
22974;DHT22;11653;50.848;4.584;2022-10-10T04:26:59;9.50;99.90
22974;DHT22;11653;50.848;4.584;2022-10-10T04:29:25;9.50;99.90
22974;DHT22;11653;50.848;4.584;2022-10-10T04:31:51;9.50;99.90
22974;DHT22;11653;50.848;4.584;2022-10-10T04:34:16;9.50;99.90
22974;DHT22;11653;50.848;4.584;2022-10-10T04:36:42;9.50;99.90
22974;DHT22;11653;50.848;4.584;2022-10-10T04:39:08;9.50;99.90
22974;DHT22;11653;50.848;4.584;2022-10-10T04:41:34;9.50;99.90
22974;DHT22;11653;50.848;4.584;2022-10-10T04:43:59;9.50;99.90
22974;DHT22;11653;50.848;4.584;2022-10-10T04:46:25;9.50;99.90
22974;DHT22;11653;50.848;4.584;2022-10-10T04:48:51;9.40;99.90
22974;DHT22;11653;50.848;4.584;2022-10-10T04:51:16;9.40;99.90
22974;DHT22;11653;50.848;4.584;2022-10-10T04:53:42;9.40;99.90
22974;DHT22;11653;50.848;4.584;2022-10-10T04:56:08;9.40;99.90
22974;DHT22;11653;50.848;4.584;2022-10-10T04:58:34;9.40;99.90
22974;DHT22;11653;50.848;4.584;2022-10-10T05:00:59;9.40;99.90
22974;DHT22;11653;50.848;4.584;2022-10-10T05:03:25;9.40;99.90
22974;DHT22;11653;50.848;4.584;2022-10-10T05:05:51;9.40;99.90
22974;DHT22;11653;50.848;4.584;2022-10-10T05:08:17;9.40;99.90
22974;DHT22;11653;50.848;4.584;2022-10-10T05:10:44;9.40;99.90
22974;DHT22;11653;50.848;4.584;2022-10-10T05:13:12;9.30;99.90
22974;DHT22;11653;50.848;4.584;2022-10-10T05:15:38;9.40;99.90
22974;DHT22;11653;50.848;4.584;2022-10-10T05:18:05;9.30;99.90
22974;DHT22;11653;50.848;4.584;2022-10-10T05:20:32;9.30;99.90
22974;DHT22;11653;50.848;4.584;2022-10-10T05:22:57;9.30;99.90
22974;DHT22;11653;50.848;4.584;2022-10-10T05:25:23;9.30;99.90
22974;DHT22;11653;50.848;4.584;2022-10-10T05:27:49;9.30;99.90
22974;DHT22;11653;50.848;4.584;2022-10-10T05:30:15;9.30;99.90
22974;DHT22;11653;50.848;4.584;2022-10-10T05:32:41;9.20;99.90
22974;DHT22;11653;50.848;4.584;2022-10-10T05:35:07;9.20;99.90
22974;DHT22;11653;50.848;4.584;2022-10-10T05:37:33;9.20;99.90
22974;DHT22;11653;50.848;4.584;2022-10-10T05:39:59;9.20;99.90
22974;DHT22;11653;50.848;4.584;2022-10-10T05:42:24;9.10;99.90
22974;DHT22;11653;50.848;4.584;2022-10-10T05:44:50;9.10;99.90
22974;DHT22;11653;50.848;4.584;2022-10-10T05:47:16;9.10;99.90
22974;DHT22;11653;50.848;4.584;2022-10-10T05:49:41;9.10;99.90
22974;DHT22;11653;50.848;4.584;2022-10-10T05:52:07;9.10;99.90
22974;DHT22;11653;50.848;4.584;2022-10-10T05:54:33;9.20;99.90
22974;DHT22;11653;50.848;4.584;2022-10-10T05:56:59;9.20;99.90
22974;DHT22;11653;50.848;4.584;2022-10-10T05:59:24;9.20;99.90
22974;DHT22;11653;50.848;4.584;2022-10-10T06:01:50;9.20;99.90
22974;DHT22;11653;50.848;4.584;2022-10-10T06:04:16;9.20;99.90
22974;DHT22;11653;50.848;4.584;2022-10-10T06:06:42;9.20;99.90
22974;DHT22;11653;50.848;4.584;2022-10-10T06:09:07;9.20;99.90
22974;DHT22;11653;50.848;4.584;2022-10-10T06:11:34;9.30;99.90
22974;DHT22;11653;50.848;4.584;2022-10-10T06:13:59;9.30;99.90
22974;DHT22;11653;50.848;4.584;2022-10-10T06:16:26;9.40;99.90
22974;DHT22;11653;50.848;4.584;2022-10-10T06:18:52;9.40;99.90
22974;DHT22;11653;50.848;4.584;2022-10-10T06:21:18;9.50;99.90
22974;DHT22;11653;50.848;4.584;2022-10-10T06:23:44;9.60;99.90
22974;DHT22;11653;50.848;4.584;2022-10-10T06:26:11;9.70;99.90
22974;DHT22;11653;50.848;4.584;2022-10-10T06:28:36;9.90;99.90
22974;DHT22;11653;50.848;4.584;2022-10-10T06:31:05;10.10;99.90
22974;DHT22;11653;50.848;4.584;2022-10-10T06:33:31;10.30;99.90
22974;DHT22;11653;50.848;4.584;2022-10-10T06:35:57;10.50;99.90
22974;DHT22;11653;50.848;4.584;2022-10-10T06:38:23;10.70;99.90
22974;DHT22;11653;50.848;4.584;2022-10-10T06:40:49;10.90;99.90
22974;DHT22;11653;50.848;4.584;2022-10-10T06:43:16;11.10;99.90
22974;DHT22;11653;50.848;4.584;2022-10-10T06:45:44;11.10;99.90
22974;DHT22;11653;50.848;4.584;2022-10-10T06:48:12;11.30;99.90
22974;DHT22;11653;50.848;4.584;2022-10-10T06:50:37;11.30;99.90
22974;DHT22;11653;50.848;4.584;2022-10-10T06:53:03;11.40;99.90
22974;DHT22;11653;50.848;4.584;2022-10-10T06:55:29;11.40;99.90
22974;DHT22;11653;50.848;4.584;2022-10-10T06:57:56;11.50;99.90
22974;DHT22;11653;50.848;4.584;2022-10-10T07:00:21;11.70;99.90
22974;DHT22;11653;50.848;4.584;2022-10-10T07:02:47;12.30;99.90
22974;DHT22;11653;50.848;4.584;2022-10-10T07:05:14;13.40;99.90
22974;DHT22;11653;50.848;4.584;2022-10-10T07:07:41;14.70;99.90
22974;DHT22;11653;50.848;4.584;2022-10-10T07:10:10;16.00;99.90
22974;DHT22;11653;50.848;4.584;2022-10-10T07:12:36;17.50;99.90
22974;DHT22;11653;50.848;4.584;2022-10-10T07:15:04;18.90;99.90
22974;DHT22;11653;50.848;4.584;2022-10-10T07:17:30;20.20;99.90
22974;DHT22;11653;50.848;4.584;2022-10-10T07:19:56;21.30;99.90
22974;DHT22;11653;50.848;4.584;2022-10-10T07:22:22;22.20;99.50
22974;DHT22;11653;50.848;4.584;2022-10-10T07:24:47;22.70;96.40
22974;DHT22;11653;50.848;4.584;2022-10-10T07:27:13;23.10;95.60
22974;DHT22;11653;50.848;4.584;2022-10-10T07:29:39;23.10;94.30
22974;DHT22;11653;50.848;4.584;2022-10-10T07:32:04;22.80;93.70
22974;DHT22;11653;50.848;4.584;2022-10-10T07:34:30;22.90;94.60
22974;DHT22;11653;50.848;4.584;2022-10-10T07:36:56;23.10;93.90
22974;DHT22;11653;50.848;4.584;2022-10-10T07:39:22;23.30;93.40
22974;DHT22;11653;50.848;4.584;2022-10-10T07:41:49;23.40;93.30
22974;DHT22;11653;50.848;4.584;2022-10-10T07:44:16;23.60;92.50
22974;DHT22;11653;50.848;4.584;2022-10-10T07:46:42;23.80;92.30
22974;DHT22;11653;50.848;4.584;2022-10-10T07:49:08;23.60;91.40
22974;DHT22;11653;50.848;4.584;2022-10-10T07:51:34;23.20;91.70
22974;DHT22;11653;50.848;4.584;2022-10-10T07:54:00;22.80;92.40
22974;DHT22;11653;50.848;4.584;2022-10-10T07:56:26;22.30;92.70
22974;DHT22;11653;50.848;4.584;2022-10-10T07:58:52;21.80;94.10
22974;DHT22;11653;50.848;4.584;2022-10-10T08:01:18;21.30;94.90
22974;DHT22;11653;50.848;4.584;2022-10-10T08:03:44;21.10;97.50
22974;DHT22;11653;50.848;4.584;2022-10-10T08:06:12;21.50;97.80
22974;DHT22;11653;50.848;4.584;2022-10-10T08:08:38;22.10;96.40
22974;DHT22;11653;50.848;4.584;2022-10-10T08:11:06;22.80;95.30
22974;DHT22;11653;50.848;4.584;2022-10-10T08:13:32;24.00;94.40
22974;DHT22;11653;50.848;4.584;2022-10-10T08:15:58;25.20;91.70
22974;DHT22;11653;50.848;4.584;2022-10-10T08:18:24;26.60;88.80
22974;DHT22;11653;50.848;4.584;2022-10-10T08:21:04;27.40;83.40
22974;DHT22;11653;50.848;4.584;2022-10-10T08:23:30;28.30;80.50
22974;DHT22;11653;50.848;4.584;2022-10-10T08:26:00;29.10;77.30
22974;DHT22;11653;50.848;4.584;2022-10-10T08:28:26;30.00;74.30
22974;DHT22;11653;50.848;4.584;2022-10-10T08:30:52;30.50;71.00
22974;DHT22;11653;50.848;4.584;2022-10-10T08:33:18;30.70;68.30
22974;DHT22;11653;50.848;4.584;2022-10-10T08:35:44;30.70;67.00
22974;DHT22;11653;50.848;4.584;2022-10-10T08:38:10;30.60;67.30
22974;DHT22;11653;50.848;4.584;2022-10-10T08:40:49;30.60;67.00
22974;DHT22;11653;50.848;4.584;2022-10-10T08:43:37;30.60;67.10
22974;DHT22;11653;50.848;4.584;2022-10-10T08:46:14;30.40;66.00
22974;DHT22;11653;50.848;4.584;2022-10-10T08:48:43;30.20;67.30
22974;DHT22;11653;50.848;4.584;2022-10-10T08:51:16;30.20;67.60
22974;DHT22;11653;50.848;4.584;2022-10-10T08:53:45;30.20;67.90
22974;DHT22;11653;50.848;4.584;2022-10-10T08:56:15;30.50;67.80
22974;DHT22;11653;50.848;4.584;2022-10-10T08:58:49;30.70;66.00
22974;DHT22;11653;50.848;4.584;2022-10-10T09:01:22;30.70;66.10
22974;DHT22;11653;50.848;4.584;2022-10-10T09:03:52;30.80;66.60
22974;DHT22;11653;50.848;4.584;2022-10-10T09:18:05;30.00;67.80
22974;DHT22;11653;50.848;4.584;2022-10-10T09:23:40;28.40;70.90
22974;DHT22;11653;50.848;4.584;2022-10-10T09:26:15;27.60;74.10
22974;DHT22;11653;50.848;4.584;2022-10-10T09:36:54;26.30;79.20
22974;DHT22;11653;50.848;4.584;2022-10-10T09:39:33;26.30;80.70
22974;DHT22;11653;50.848;4.584;2022-10-10T09:42:03;26.80;77.70
22974;DHT22;11653;50.848;4.584;2022-10-10T09:44:30;26.90;77.80
22974;DHT22;11653;50.848;4.584;2022-10-10T09:46:57;27.00;77.70
22974;DHT22;11653;50.848;4.584;2022-10-10T09:49:24;26.80;76.40
22974;DHT22;11653;50.848;4.584;2022-10-10T09:51:50;26.30;77.70
22974;DHT22;11653;50.848;4.584;2022-10-10T09:54:18;25.90;81.60
22974;DHT22;11653;50.848;4.584;2022-10-10T09:56:53;26.10;79.40
22974;DHT22;11653;50.848;4.584;2022-10-10T09:59:36;26.80;78.70
22974;DHT22;11653;50.848;4.584;2022-10-10T10:02:13;27.30;74.50
22974;DHT22;11653;50.848;4.584;2022-10-10T10:04:39;27.80;75.00
22974;DHT22;11653;50.848;4.584;2022-10-10T10:07:16;28.60;72.20
22974;DHT22;11653;50.848;4.584;2022-10-10T10:09:56;28.70;72.10
22974;DHT22;11653;50.848;4.584;2022-10-10T10:12:26;28.80;71.80
22974;DHT22;11653;50.848;4.584;2022-10-10T10:15:01;28.80;71.60
22974;DHT22;11653;50.848;4.584;2022-10-10T10:17:28;28.80;71.00
22974;DHT22;11653;50.848;4.584;2022-10-10T10:19:54;29.00;69.30
22974;DHT22;11653;50.848;4.584;2022-10-10T10:22:32;29.40;70.50
22974;DHT22;11653;50.848;4.584;2022-10-10T10:25:26;30.10;68.60
22974;DHT22;11653;50.848;4.584;2022-10-10T10:27:45;30.80;66.80
22974;DHT22;11653;50.848;4.584;2022-10-10T10:30:23;31.30;64.60
22974;DHT22;11653;50.848;4.584;2022-10-10T10:32:58;31.90;64.00
22974;DHT22;11653;50.848;4.584;2022-10-10T10:43:59;34.20;58.10
22974;DHT22;11653;50.848;4.584;2022-10-10T10:46:54;34.60;57.50
22974;DHT22;11653;50.848;4.584;2022-10-10T10:49:41;34.40;55.40
22974;DHT22;11653;50.848;4.584;2022-10-10T10:52:21;33.90;56.70
22974;DHT22;11653;50.848;4.584;2022-10-10T10:55:18;33.40;57.50
22974;DHT22;11653;50.848;4.584;2022-10-10T11:01:05;31.80;59.00
22974;DHT22;11653;50.848;4.584;2022-10-10T11:10:03;30.20;64.00
22974;DHT22;11653;50.848;4.584;2022-10-10T11:15:16;29.40;65.30
22974;DHT22;11653;50.848;4.584;2022-10-10T11:17:54;28.90;64.80
22974;DHT22;11653;50.848;4.584;2022-10-10T11:20:42;28.40;68.30
22974;DHT22;11653;50.848;4.584;2022-10-10T11:23:16;27.90;69.70
22974;DHT22;11653;50.848;4.584;2022-10-10T11:25:46;27.50;71.20
22974;DHT22;11653;50.848;4.584;2022-10-10T11:37:16;25.80;74.10
22974;DHT22;11653;50.848;4.584;2022-10-10T11:39:49;25.50;75.50
22974;DHT22;11653;50.848;4.584;2022-10-10T11:42:23;25.20;75.00
22974;DHT22;11653;50.848;4.584;2022-10-10T11:45:15;24.90;76.70
22974;DHT22;11653;50.848;4.584;2022-10-10T11:51:40;23.80;82.90
22974;DHT22;11653;50.848;4.584;2022-10-10T11:54:34;23.30;84.70
22974;DHT22;11653;50.848;4.584;2022-10-10T11:57:07;22.90;85.10
22974;DHT22;11653;50.848;4.584;2022-10-10T11:59:42;22.60;88.00
22974;DHT22;11653;50.848;4.584;2022-10-10T12:02:30;22.30;90.10
22974;DHT22;11653;50.848;4.584;2022-10-10T12:04:56;22.10;89.70
22974;DHT22;11653;50.848;4.584;2022-10-10T12:07:49;21.70;90.40
22974;DHT22;11653;50.848;4.584;2022-10-10T12:10:21;21.30;91.00
22974;DHT22;11653;50.848;4.584;2022-10-10T12:12:50;21.10;92.50
22974;DHT22;11653;50.848;4.584;2022-10-10T12:15:32;21.00;92.50
22974;DHT22;11653;50.848;4.584;2022-10-10T12:17:59;20.80;93.80
22974;DHT22;11653;50.848;4.584;2022-10-10T12:25:43;20.50;95.30
22974;DHT22;11653;50.848;4.584;2022-10-10T12:33:58;20.20;97.60
22974;DHT22;11653;50.848;4.584;2022-10-10T12:41:53;20.10;99.90
22974;DHT22;11653;50.848;4.584;2022-10-10T12:47:30;20.10;99.90
22974;DHT22;11653;50.848;4.584;2022-10-10T12:49:57;20.10;99.90
22974;DHT22;11653;50.848;4.584;2022-10-10T12:52:30;19.90;99.90
22974;DHT22;11653;50.848;4.584;2022-10-10T12:55:08;20.00;99.90
22974;DHT22;11653;50.848;4.584;2022-10-10T12:57:42;19.90;99.90
22974;DHT22;11653;50.848;4.584;2022-10-10T13:02:47;20.00;99.90
22974;DHT22;11653;50.848;4.584;2022-10-10T13:05:17;20.00;99.90
22974;DHT22;11653;50.848;4.584;2022-10-10T13:07:44;20.00;99.90
22974;DHT22;11653;50.848;4.584;2022-10-10T13:10:26;20.00;99.90
22974;DHT22;11653;50.848;4.584;2022-10-10T13:13:24;20.10;99.90
22974;DHT22;11653;50.848;4.584;2022-10-10T13:15:52;20.30;99.90
22974;DHT22;11653;50.848;4.584;2022-10-10T13:18:47;20.30;99.90
22974;DHT22;11653;50.848;4.584;2022-10-10T13:21:14;20.40;99.90
22974;DHT22;11653;50.848;4.584;2022-10-10T13:23:45;20.50;99.90
22974;DHT22;11653;50.848;4.584;2022-10-10T13:26:20;20.50;99.90
22974;DHT22;11653;50.848;4.584;2022-10-10T13:28:47;20.80;99.90
22974;DHT22;11653;50.848;4.584;2022-10-10T13:31:13;20.90;99.90
22974;DHT22;11653;50.848;4.584;2022-10-10T13:33:39;21.10;99.90
22974;DHT22;11653;50.848;4.584;2022-10-10T13:36:07;21.10;99.90
22974;DHT22;11653;50.848;4.584;2022-10-10T13:38:34;21.10;99.90
22974;DHT22;11653;50.848;4.584;2022-10-10T13:41:02;21.20;99.90
22974;DHT22;11653;50.848;4.584;2022-10-10T13:43:29;21.10;99.90
22974;DHT22;11653;50.848;4.584;2022-10-10T13:45:59;21.20;99.90
22974;DHT22;11653;50.848;4.584;2022-10-10T13:51:05;21.20;99.90
22974;DHT22;11653;50.848;4.584;2022-10-10T13:53:44;21.30;99.90
22974;DHT22;11653;50.848;4.584;2022-10-10T13:58:43;21.30;99.90
22974;DHT22;11653;50.848;4.584;2022-10-10T14:06:40;21.40;99.90
22974;DHT22;11653;50.848;4.584;2022-10-10T14:14:59;21.60;99.90
22974;DHT22;11653;50.848;4.584;2022-10-10T14:17:26;21.50;99.90
22974;DHT22;11653;50.848;4.584;2022-10-10T14:19:53;21.30;99.90
22974;DHT22;11653;50.848;4.584;2022-10-10T14:22:20;21.20;99.90
22974;DHT22;11653;50.848;4.584;2022-10-10T14:24:46;21.00;99.90
22974;DHT22;11653;50.848;4.584;2022-10-10T14:29:44;20.80;99.90
22974;DHT22;11653;50.848;4.584;2022-10-10T14:32:12;20.60;99.90
22974;DHT22;11653;50.848;4.584;2022-10-10T14:34:38;20.40;99.90
22974;DHT22;11653;50.848;4.584;2022-10-10T14:37:04;20.40;99.90
22974;DHT22;11653;50.848;4.584;2022-10-10T14:39:31;20.40;99.90
22974;DHT22;11653;50.848;4.584;2022-10-10T14:41:57;20.30;99.90
22974;DHT22;11653;50.848;4.584;2022-10-10T14:44:24;20.30;99.90
22974;DHT22;11653;50.848;4.584;2022-10-10T14:46:50;20.20;99.90
22974;DHT22;11653;50.848;4.584;2022-10-10T14:49:20;20.20;99.90
22974;DHT22;11653;50.848;4.584;2022-10-10T14:51:46;20.00;99.90
22974;DHT22;11653;50.848;4.584;2022-10-10T14:54:13;20.00;99.90
22974;DHT22;11653;50.848;4.584;2022-10-10T14:56:42;20.00;99.90
22974;DHT22;11653;50.848;4.584;2022-10-10T14:59:18;20.00;99.90
22974;DHT22;11653;50.848;4.584;2022-10-10T15:01:45;20.00;99.90
22974;DHT22;11653;50.848;4.584;2022-10-10T15:04:11;19.90;99.90
22974;DHT22;11653;50.848;4.584;2022-10-10T15:06:37;19.90;99.90
22974;DHT22;11653;50.848;4.584;2022-10-10T15:09:03;19.90;99.90
22974;DHT22;11653;50.848;4.584;2022-10-10T15:11:29;19.80;99.90
22974;DHT22;11653;50.848;4.584;2022-10-10T15:13:54;19.70;99.90
22974;DHT22;11653;50.848;4.584;2022-10-10T15:16:21;19.60;99.90
22974;DHT22;11653;50.848;4.584;2022-10-10T15:18:47;19.60;99.90
22974;DHT22;11653;50.848;4.584;2022-10-10T15:21:13;19.50;99.90
22974;DHT22;11653;50.848;4.584;2022-10-10T15:23:38;19.40;99.90
22974;DHT22;11653;50.848;4.584;2022-10-10T15:26:05;19.00;99.90
22974;DHT22;11653;50.848;4.584;2022-10-10T15:28:31;18.70;99.90
22974;DHT22;11653;50.848;4.584;2022-10-10T15:30:57;18.60;99.90
22974;DHT22;11653;50.848;4.584;2022-10-10T15:33:23;18.40;99.90
22974;DHT22;11653;50.848;4.584;2022-10-10T15:36:06;18.20;99.90
22974;DHT22;11653;50.848;4.584;2022-10-10T15:38:35;18.20;99.90
22974;DHT22;11653;50.848;4.584;2022-10-10T15:41:06;18.10;99.90
22974;DHT22;11653;50.848;4.584;2022-10-10T15:43:44;18.00;99.90
22974;DHT22;11653;50.848;4.584;2022-10-10T15:46:11;17.90;99.90
22974;DHT22;11653;50.848;4.584;2022-10-10T15:48:37;17.90;99.90
22974;DHT22;11653;50.848;4.584;2022-10-10T15:51:09;17.80;99.90
22974;DHT22;11653;50.848;4.584;2022-10-10T15:53:35;17.70;99.90
22974;DHT22;11653;50.848;4.584;2022-10-10T15:56:06;17.70;99.90
22974;DHT22;11653;50.848;4.584;2022-10-10T15:58:32;17.60;99.90
22974;DHT22;11653;50.848;4.584;2022-10-10T16:00:59;17.50;99.90
22974;DHT22;11653;50.848;4.584;2022-10-10T16:03:24;17.40;99.90
22974;DHT22;11653;50.848;4.584;2022-10-10T16:05:50;17.40;99.90
22974;DHT22;11653;50.848;4.584;2022-10-10T16:08:16;17.40;99.90
22974;DHT22;11653;50.848;4.584;2022-10-10T16:10:43;17.30;99.90
22974;DHT22;11653;50.848;4.584;2022-10-10T16:13:09;17.20;99.90
22974;DHT22;11653;50.848;4.584;2022-10-10T16:15:35;17.20;99.90
22974;DHT22;11653;50.848;4.584;2022-10-10T16:18:01;17.00;99.90
22974;DHT22;11653;50.848;4.584;2022-10-10T16:20:27;16.90;99.90
22974;DHT22;11653;50.848;4.584;2022-10-10T16:22:53;16.70;99.90
22974;DHT22;11653;50.848;4.584;2022-10-10T16:25:19;16.60;99.90
22974;DHT22;11653;50.848;4.584;2022-10-10T16:27:44;16.60;99.90
22974;DHT22;11653;50.848;4.584;2022-10-10T16:30:10;16.60;99.90
22974;DHT22;11653;50.848;4.584;2022-10-10T16:32:36;16.50;99.90
22974;DHT22;11653;50.848;4.584;2022-10-10T16:35:02;16.50;99.90
22974;DHT22;11653;50.848;4.584;2022-10-10T16:37:28;16.50;99.90
22974;DHT22;11653;50.848;4.584;2022-10-10T16:39:53;16.40;99.90
22974;DHT22;11653;50.848;4.584;2022-10-10T16:42:19;16.40;99.90
22974;DHT22;11653;50.848;4.584;2022-10-10T16:44:45;16.30;99.90
22974;DHT22;11653;50.848;4.584;2022-10-10T16:47:10;16.30;99.90
22974;DHT22;11653;50.848;4.584;2022-10-10T16:49:36;16.40;99.90
22974;DHT22;11653;50.848;4.584;2022-10-10T16:52:02;16.50;99.90
22974;DHT22;11653;50.848;4.584;2022-10-10T16:54:27;16.30;99.90
22974;DHT22;11653;50.848;4.584;2022-10-10T16:56:53;16.10;99.90
22974;DHT22;11653;50.848;4.584;2022-10-10T16:59:18;16.10;99.90
22974;DHT22;11653;50.848;4.584;2022-10-10T17:01:44;16.10;99.90
22974;DHT22;11653;50.848;4.584;2022-10-10T17:04:11;16.10;99.90
22974;DHT22;11653;50.848;4.584;2022-10-10T17:06:37;16.10;99.90
22974;DHT22;11653;50.848;4.584;2022-10-10T17:09:04;16.10;99.90
22974;DHT22;11653;50.848;4.584;2022-10-10T17:11:31;16.10;99.90
22974;DHT22;11653;50.848;4.584;2022-10-10T17:13:57;15.90;99.90
22974;DHT22;11653;50.848;4.584;2022-10-10T17:16:25;15.90;99.90
22974;DHT22;11653;50.848;4.584;2022-10-10T17:18:51;15.80;99.90
22974;DHT22;11653;50.848;4.584;2022-10-10T17:21:20;15.80;99.90
22974;DHT22;11653;50.848;4.584;2022-10-10T17:23:47;15.80;99.90
22974;DHT22;11653;50.848;4.584;2022-10-10T17:26:15;15.90;99.90
22974;DHT22;11653;50.848;4.584;2022-10-10T17:28:42;16.00;99.90
22974;DHT22;11653;50.848;4.584;2022-10-10T17:31:13;16.00;99.90
22974;DHT22;11653;50.848;4.584;2022-10-10T17:33:40;16.00;99.90
22974;DHT22;11653;50.848;4.584;2022-10-10T17:36:12;15.90;99.90
22974;DHT22;11653;50.848;4.584;2022-10-10T17:38:38;15.90;99.90
22974;DHT22;11653;50.848;4.584;2022-10-10T17:41:07;15.90;99.90
22974;DHT22;11653;50.848;4.584;2022-10-10T17:43:34;15.80;99.90
22974;DHT22;11653;50.848;4.584;2022-10-10T17:46:01;15.80;99.90
22974;DHT22;11653;50.848;4.584;2022-10-10T17:48:27;15.70;99.90
22974;DHT22;11653;50.848;4.584;2022-10-10T17:50:53;15.60;99.90
22974;DHT22;11653;50.848;4.584;2022-10-10T17:53:19;15.50;99.90
22974;DHT22;11653;50.848;4.584;2022-10-10T17:55:44;15.40;99.90
22974;DHT22;11653;50.848;4.584;2022-10-10T17:58:10;15.40;99.90
22974;DHT22;11653;50.848;4.584;2022-10-10T18:00:38;15.30;99.90